Ashington, United Kingdom
Current Conditions -  °F | °C
As of 2:50 PM on Monday 24 Nov 2014 (Local Time) from EGNT Reporting Station
Clear Clear  
Wind Chill: 41°   Ceiling: Unl
Heat Index: 45°   Visibility: 6mi
Dew Point: 39°   Wind: 6mph
Humidity: 81%   Direction: 250°WSW
Pressure: 30.24"   Gusts: NA
Location:  55.18°N, 1.58°W
Report Text: EGNT 241450Z 25005KT CAVOK 07/04 Q1024
Loading
Personal Weather Stations






























Interactive Weather Map New forecast layout! Learn more

10-Day Weather Forecast

Advertisements
Track Severe Weather on mobile